sensor_id;sensor_type;location;lat;lon;timestamp;pressure;altitude;pressure_sealevel;temperature;humidity
76766;BME280;65707;52.362;6.588;2024-02-14T00:00:00;101384.50;;;8.50;91.59
76766;BME280;65707;52.362;6.588;2024-02-14T00:02:27;101379.97;;;8.50;91.26
76766;BME280;65707;52.362;6.588;2024-02-14T00:04:55;101378.56;;;8.56;90.98
76766;BME280;65707;52.362;6.588;2024-02-14T00:07:22;101387.56;;;8.64;91.54
76766;BME280;65707;52.362;6.588;2024-02-14T00:09:49;101390.38;;;8.53;91.46
76766;BME280;65707;52.362;6.588;2024-02-14T00:12:15;101374.63;;;8.60;91.54
76766;BME280;65707;52.362;6.588;2024-02-14T00:14:42;101376.03;;;8.64;91.84
76766;BME280;65707;52.362;6.588;2024-02-14T00:17:09;101361.22;;;8.69;91.71
76766;BME280;65707;52.362;6.588;2024-02-14T00:19:37;101363.34;;;8.56;91.96
76766;BME280;65707;52.362;6.588;2024-02-14T00:22:06;101372.38;;;8.55;92.56
76766;BME280;65707;52.362;6.588;2024-02-14T00:24:32;101370.69;;;8.54;92.37
76766;BME280;65707;52.362;6.588;2024-02-14T00:27:01;101351.41;;;8.60;92.85
76766;BME280;65707;52.362;6.588;2024-02-14T00:29:28;101355.16;;;8.67;93.42
76766;BME280;65707;52.362;6.588;2024-02-14T00:31:55;101355.72;;;8.71;92.51
76766;BME280;65707;52.362;6.588;2024-02-14T00:34:22;101359.41;;;8.70;92.25
76766;BME280;65707;52.362;6.588;2024-02-14T00:36:49;101363.91;;;8.69;93.08
76766;BME280;65707;52.362;6.588;2024-02-14T00:39:17;101380.38;;;8.65;93.08
76766;BME280;65707;52.362;6.588;2024-02-14T00:41:45;101353.06;;;8.71;93.15
76766;BME280;65707;52.362;6.588;2024-02-14T00:44:12;101354.44;;;8.84;92.77
76766;BME280;65707;52.362;6.588;2024-02-14T00:46:42;101353.06;;;8.71;93.53
76766;BME280;65707;52.362;6.588;2024-02-14T00:49:09;101356.16;;;8.76;92.92
76766;BME280;65707;52.362;6.588;2024-02-14T00:51:36;101350.91;;;8.84;92.76
76766;BME280;65707;52.362;6.588;2024-02-14T00:54:03;101354.72;;;8.81;93.21
76766;BME280;65707;52.362;6.588;2024-02-14T00:56:32;101354.56;;;8.83;93.37
76766;BME280;65707;52.362;6.588;2024-02-14T00:58:59;101360.66;;;8.75;93.32
76766;BME280;65707;52.362;6.588;2024-02-14T01:01:26;101355.44;;;8.74;94.49
76766;BME280;65707;52.362;6.588;2024-02-14T01:03:52;101334.44;;;8.79;94.70
76766;BME280;65707;52.362;6.588;2024-02-14T01:06:19;101332.63;;;8.79;95.31
76766;BME280;65707;52.362;6.588;2024-02-14T01:08:46;101332.50;;;8.71;94.93
76766;BME280;65707;52.362;6.588;2024-02-14T01:11:12;101329.09;;;8.79;94.54
76766;BME280;65707;52.362;6.588;2024-02-14T01:13:41;101326.00;;;8.74;94.94
76766;BME280;65707;52.362;6.588;2024-02-14T01:16:07;101311.94;;;8.72;95.70
76766;BME280;65707;52.362;6.588;2024-02-14T01:18:34;101318.69;;;8.76;95.59
76766;BME280;65707;52.362;6.588;2024-02-14T01:21:02;101315.00;;;8.86;95.55
76766;BME280;65707;52.362;6.588;2024-02-14T01:23:29;101308.00;;;8.76;95.86
76766;BME280;65707;52.362;6.588;2024-02-14T01:25:55;101307.41;;;8.82;96.28
76766;BME280;65707;52.362;6.588;2024-02-14T01:28:22;101312.00;;;8.89;95.92
76766;BME280;65707;52.362;6.588;2024-02-14T01:30:50;101305.69;;;8.90;95.49
76766;BME280;65707;52.362;6.588;2024-02-14T01:33:17;101313.41;;;9.03;95.44
76766;BME280;65707;52.362;6.588;2024-02-14T01:35:44;101301.56;;;8.96;95.43
76766;BME280;65707;52.362;6.588;2024-02-14T01:38:10;101303.13;;;8.98;95.18
76766;BME280;65707;52.362;6.588;2024-02-14T01:40:38;101297.19;;;9.04;95.25
76766;BME280;65707;52.362;6.588;2024-02-14T01:43:04;101290.97;;;9.04;94.84
76766;BME280;65707;52.362;6.588;2024-02-14T01:45:31;101298.59;;;8.99;95.69
76766;BME280;65707;52.362;6.588;2024-02-14T01:48:00;101292.13;;;9.01;95.80
76766;BME280;65707;52.362;6.588;2024-02-14T01:50:27;101289.75;;;8.98;95.98
76766;BME280;65707;52.362;6.588;2024-02-14T01:52:56;101296.34;;;9.04;96.45
76766;BME280;65707;52.362;6.588;2024-02-14T01:55:26;101290.44;;;9.00;96.24
76766;BME280;65707;52.362;6.588;2024-02-14T01:57:54;101289.81;;;9.06;95.42
76766;BME280;65707;52.362;6.588;2024-02-14T02:00:21;101272.78;;;9.07;95.98
76766;BME280;65707;52.362;6.588;2024-02-14T02:02:48;101289.31;;;9.03;95.29
76766;BME280;65707;52.362;6.588;2024-02-14T02:05:16;101281.53;;;9.09;95.94
76766;BME280;65707;52.362;6.588;2024-02-14T02:07:44;101268.72;;;9.03;96.40
76766;BME280;65707;52.362;6.588;2024-02-14T02:10:13;101279.94;;;9.16;96.28
76766;BME280;65707;52.362;6.588;2024-02-14T02:12:40;101279.19;;;9.24;95.89
76766;BME280;65707;52.362;6.588;2024-02-14T02:15:08;101274.66;;;9.24;96.07
76766;BME280;65707;52.362;6.588;2024-02-14T02:17:38;101268.56;;;9.32;96.01
76766;BME280;65707;52.362;6.588;2024-02-14T02:20:06;101262.09;;;9.34;95.54
76766;BME280;65707;52.362;6.588;2024-02-14T02:22:35;101281.03;;;9.41;95.37
76766;BME280;65707;52.362;6.588;2024-02-14T02:25:04;101262.09;;;9.34;95.71
76766;BME280;65707;52.362;6.588;2024-02-14T02:27:33;101257.78;;;9.41;96.33
76766;BME280;65707;52.362;6.588;2024-02-14T02:30:03;101264.31;;;9.39;96.20
76766;BME280;65707;52.362;6.588;2024-02-14T02:32:31;101264.69;;;9.44;96.50
76766;BME280;65707;52.362;6.588;2024-02-14T02:34:58;101259.25;;;9.36;96.24
76766;BME280;65707;52.362;6.588;2024-02-14T02:37:25;101254.41;;;9.39;96.13
76766;BME280;65707;52.362;6.588;2024-02-14T02:39:53;101261.88;;;9.46;96.19
76766;BME280;65707;52.362;6.588;2024-02-14T02:42:21;101253.84;;;9.46;96.58
76766;BME280;65707;52.362;6.588;2024-02-14T02:44:49;101259.19;;;9.46;96.71
76766;BME280;65707;52.362;6.588;2024-02-14T02:47:16;101257.34;;;9.46;96.63
76766;BME280;65707;52.362;6.588;2024-02-14T02:49:43;101256.66;;;9.44;96.85
76766;BME280;65707;52.362;6.588;2024-02-14T02:52:11;101257.03;;;9.49;96.98
76766;BME280;65707;52.362;6.588;2024-02-14T02:54:37;101256.06;;;9.50;96.92
76766;BME280;65707;52.362;6.588;2024-02-14T02:57:06;101257.97;;;9.58;96.69
76766;BME280;65707;52.362;6.588;2024-02-14T02:59:35;101250.69;;;9.50;97.25
76766;BME280;65707;52.362;6.588;2024-02-14T03:02:03;101259.72;;;9.67;97.23
76766;BME280;65707;52.362;6.588;2024-02-14T03:04:33;101255.84;;;9.61;96.98
76766;BME280;65707;52.362;6.588;2024-02-14T03:07:00;101270.91;;;9.62;96.80
76766;BME280;65707;52.362;6.588;2024-02-14T03:09:29;101257.06;;;9.67;97.56
76766;BME280;65707;52.362;6.588;2024-02-14T03:11:56;101260.34;;;9.78;96.54
76766;BME280;65707;52.362;6.588;2024-02-14T03:14:23;101252.94;;;9.72;96.44
76766;BME280;65707;52.362;6.588;2024-02-14T03:16:51;101258.00;;;9.75;96.67
76766;BME280;65707;52.362;6.588;2024-02-14T03:19:18;101259.19;;;9.81;97.03
76766;BME280;65707;52.362;6.588;2024-02-14T03:21:44;101253.69;;;9.82;96.89
76766;BME280;65707;52.362;6.588;2024-02-14T03:24:12;101252.78;;;9.74;97.16
76766;BME280;65707;52.362;6.588;2024-02-14T03:26:39;101264.56;;;9.81;96.82
76766;BME280;65707;52.362;6.588;2024-02-14T03:29:07;101257.28;;;9.91;96.60
76766;BME280;65707;52.362;6.588;2024-02-14T03:31:33;101265.41;;;9.99;96.22
76766;BME280;65707;52.362;6.588;2024-02-14T03:34:02;101255.44;;;9.91;96.78
76766;BME280;65707;52.362;6.588;2024-02-14T03:36:30;101260.34;;;9.96;96.38
76766;BME280;65707;52.362;6.588;2024-02-14T03:38:57;101269.38;;;9.95;96.36
76766;BME280;65707;52.362;6.588;2024-02-14T03:41:26;101255.97;;;9.95;96.92
76766;BME280;65707;52.362;6.588;2024-02-14T03:43:53;101261.34;;;9.95;96.23
76766;BME280;65707;52.362;6.588;2024-02-14T03:46:23;101259.56;;;10.03;96.46
76766;BME280;65707;52.362;6.588;2024-02-14T03:48:50;101259.19;;;9.98;96.45
76766;BME280;65707;52.362;6.588;2024-02-14T03:51:18;101265.56;;;9.97;96.85
76766;BME280;65707;52.362;6.588;2024-02-14T03:53:45;101254.06;;;10.05;96.68
76766;BME280;65707;52.362;6.588;2024-02-14T03:56:11;101272.81;;;10.05;96.31
76766;BME280;65707;52.362;6.588;2024-02-14T03:58:39;101269.28;;;10.04;96.48
76766;BME280;65707;52.362;6.588;2024-02-14T04:01:06;101273.31;;;10.18;96.80
76766;BME280;65707;52.362;6.588;2024-02-14T04:03:33;101273.53;;;10.07;96.74
76766;BME280;65707;52.362;6.588;2024-02-14T04:06:00;101266.25;;;10.17;96.37
76766;BME280;65707;52.362;6.588;2024-02-14T04:08:28;101271.94;;;10.14;96.40
76766;BME280;65707;52.362;6.588;2024-02-14T04:10:55;101266.78;;;10.20;95.58
76766;BME280;65707;52.362;6.588;2024-02-14T04:13:22;101267.94;;;10.18;96.19
76766;BME280;65707;52.362;6.588;2024-02-14T04:15:49;101276.66;;;10.20;95.71
76766;BME280;65707;52.362;6.588;2024-02-14T04:18:15;101266.56;;;10.14;95.87
76766;BME280;65707;52.362;6.588;2024-02-14T04:20:43;101274.34;;;10.25;96.75
76766;BME280;65707;52.362;6.588;2024-02-14T04:23:10;101279.03;;;10.23;96.21
76766;BME280;65707;52.362;6.588;2024-02-14T04:25:38;101268.53;;;10.29;95.39
76766;BME280;65707;52.362;6.588;2024-02-14T04:28:05;101265.03;;;10.29;95.88
76766;BME280;65707;52.362;6.588;2024-02-14T04:30:32;101289.31;;;10.27;96.11
76766;BME280;65707;52.362;6.588;2024-02-14T04:33:00;101278.72;;;10.26;95.92
76766;BME280;65707;52.362;6.588;2024-02-14T04:35:28;101271.22;;;10.29;96.13
76766;BME280;65707;52.362;6.588;2024-02-14T04:37:54;101278.44;;;10.29;96.61
76766;BME280;65707;52.362;6.588;2024-02-14T04:40:22;101285.84;;;10.35;95.82
76766;BME280;65707;52.362;6.588;2024-02-14T04:42:50;101279.16;;;10.39;95.92
76766;BME280;65707;52.362;6.588;2024-02-14T04:45:17;101291.94;;;10.45;96.02
76766;BME280;65707;52.362;6.588;2024-02-14T04:47:44;101279.16;;;10.39;96.04
76766;BME280;65707;52.362;6.588;2024-02-14T04:50:11;101288.75;;;10.41;96.54
76766;BME280;65707;52.362;6.588;2024-02-14T04:52:39;101294.31;;;10.48;96.67
76766;BME280;65707;52.362;6.588;2024-02-14T04:55:06;101279.91;;;10.49;96.45
76766;BME280;65707;52.362;6.588;2024-02-14T04:57:34;101296.66;;;10.43;96.54
76766;BME280;65707;52.362;6.588;2024-02-14T05:00:04;101287.22;;;10.39;96.77
76766;BME280;65707;52.362;6.588;2024-02-14T05:02:34;101301.84;;;10.44;97.26
76766;BME280;65707;52.362;6.588;2024-02-14T05:05:01;101296.69;;;10.51;97.39
76766;BME280;65707;52.362;6.588;2024-02-14T05:07:28;101298.06;;;10.55;96.81
76766;BME280;65707;52.362;6.588;2024-02-14T05:09:55;101302.56;;;10.54;96.70
76766;BME280;65707;52.362;6.588;2024-02-14T05:12:21;101294.69;;;10.53;96.72
76766;BME280;65707;52.362;6.588;2024-02-14T05:14:48;101295.44;;;10.63;96.85
76766;BME280;65707;52.362;6.588;2024-02-14T05:17:16;101308.00;;;10.62;96.41
76766;BME280;65707;52.362;6.588;2024-02-14T05:19:43;101314.53;;;10.60;97.06
76766;BME280;65707;52.362;6.588;2024-02-14T05:22:10;101316.53;;;10.58;96.98
76766;BME280;65707;52.362;6.588;2024-02-14T05:24:37;101320.13;;;10.66;97.01
76766;BME280;65707;52.362;6.588;2024-02-14T05:27:04;101322.28;;;10.63;97.38
76766;BME280;65707;52.362;6.588;2024-02-14T05:29:31;101320.28;;;10.65;97.52
76766;BME280;65707;52.362;6.588;2024-02-14T05:31:58;101319.81;;;10.69;97.40
76766;BME280;65707;52.362;6.588;2024-02-14T05:34:26;101324.31;;;10.69;97.57
76766;BME280;65707;52.362;6.588;2024-02-14T05:36:53;101321.31;;;10.72;97.50
76766;BME280;65707;52.362;6.588;2024-02-14T05:39:19;101335.06;;;10.69;97.73
76766;BME280;65707;52.362;6.588;2024-02-14T05:41:46;101337.44;;;10.72;97.80
76766;BME280;65707;52.362;6.588;2024-02-14T05:44:14;101328.91;;;10.76;97.74
76766;BME280;65707;52.362;6.588;2024-02-14T05:46:41;101350.16;;;10.70;97.64
76766;BME280;65707;52.362;6.588;2024-02-14T05:49:08;101331.25;;;10.79;97.47
76766;BME280;65707;52.362;6.588;2024-02-14T05:51:36;101328.06;;;10.76;97.83
76766;BME280;65707;52.362;6.588;2024-02-14T05:54:02;101338.50;;;10.79;98.08
76766;BME280;65707;52.362;6.588;2024-02-14T05:56:29;101340.53;;;10.85;98.20
76766;BME280;65707;52.362;6.588;2024-02-14T05:58:56;101339.84;;;10.83;97.60
76766;BME280;65707;52.362;6.588;2024-02-14T06:01:22;101351.81;;;10.88;97.71
76766;BME280;65707;52.362;6.588;2024-02-14T06:03:49;101348.28;;;10.88;97.53
76766;BME280;65707;52.362;6.588;2024-02-14T06:06:16;101346.94;;;10.92;97.92
76766;BME280;65707;52.362;6.588;2024-02-14T06:08:44;101352.81;;;10.87;98.09
76766;BME280;65707;52.362;6.588;2024-02-14T06:11:10;101364.22;;;10.89;97.78
76766;BME280;65707;52.362;6.588;2024-02-14T06:13:39;101353.00;;;10.94;97.44
76766;BME280;65707;52.362;6.588;2024-02-14T06:16:06;101365.59;;;10.93;97.30
76766;BME280;65707;52.362;6.588;2024-02-14T06:18:33;101363.44;;;10.97;96.94
76766;BME280;65707;52.362;6.588;2024-02-14T06:21:01;101367.28;;;10.94;97.58
76766;BME280;65707;52.362;6.588;2024-02-14T06:23:27;101367.94;;;10.96;97.85
76766;BME280;65707;52.362;6.588;2024-02-14T06:25:55;101370.69;;;11.05;97.37
76766;BME280;65707;52.362;6.588;2024-02-14T06:28:22;101365.09;;;10.98;97.29
76766;BME280;65707;52.362;6.588;2024-02-14T06:30:49;101372.56;;;11.04;97.42
76766;BME280;65707;52.362;6.588;2024-02-14T06:33:15;101372.56;;;11.04;97.24
76766;BME280;65707;52.362;6.588;2024-02-14T06:35:42;101388.50;;;11.06;97.38
76766;BME280;65707;52.362;6.588;2024-02-14T06:38:09;101386.03;;;11.12;97.56
76766;BME280;65707;52.362;6.588;2024-02-14T06:40:35;101395.41;;;11.08;97.30
76766;BME280;65707;52.362;6.588;2024-02-14T06:43:04;101382.81;;;11.09;97.27
76766;BME280;65707;52.362;6.588;2024-02-14T06:45:32;101398.13;;;11.16;97.21
76766;BME280;65707;52.362;6.588;2024-02-14T06:47:59;101404.84;;;11.12;96.96
76766;BME280;65707;52.362;6.588;2024-02-14T06:50:26;101407.53;;;11.12;97.64
76766;BME280;65707;52.362;6.588;2024-02-14T06:52:54;101405.13;;;11.09;97.40
76766;BME280;65707;52.362;6.588;2024-02-14T06:55:24;101412.91;;;11.20;97.18
76766;BME280;65707;52.362;6.588;2024-02-14T06:57:51;101412.03;;;11.12;97.05
76766;BME280;65707;52.362;6.588;2024-02-14T07:00:21;101417.63;;;11.18;97.02
76766;BME280;65707;52.362;6.588;2024-02-14T07:02:47;101421.47;;;11.16;97.33
76766;BME280;65707;52.362;6.588;2024-02-14T07:05:14;101425.31;;;11.13;97.60
76766;BME280;65707;52.362;6.588;2024-02-14T07:07:41;101430.22;;;11.18;96.89
76766;BME280;65707;52.362;6.588;2024-02-14T07:10:09;101429.25;;;11.27;96.60
76766;BME280;65707;52.362;6.588;2024-02-14T07:12:36;101430.44;;;11.24;96.48
76766;BME280;65707;52.362;6.588;2024-02-14T07:15:03;101430.97;;;11.28;96.42
76766;BME280;65707;52.362;6.588;2024-02-14T07:17:32;101434.84;;;11.33;96.45
76766;BME280;65707;52.362;6.588;2024-02-14T07:19:59;101436.19;;;11.29;96.06
76766;BME280;65707;52.362;6.588;2024-02-14T07:22:25;101437.84;;;11.30;95.93
76766;BME280;65707;52.362;6.588;2024-02-14T07:24:52;101442.06;;;11.33;96.26
76766;BME280;65707;52.362;6.588;2024-02-14T07:27:20;101438.44;;;11.42;95.77
76766;BME280;65707;52.362;6.588;2024-02-14T07:29:47;101447.41;;;11.33;95.66
76766;BME280;65707;52.362;6.588;2024-02-14T07:32:14;101424.41;;;11.30;95.51
76766;BME280;65707;52.362;6.588;2024-02-14T07:34:43;101440.31;;;11.49;95.01
76766;BME280;65707;52.362;6.588;2024-02-14T07:37:10;101441.78;;;11.44;94.82
76766;BME280;65707;52.362;6.588;2024-02-14T07:39:36;101453.91;;;11.48;94.70
76766;BME280;65707;52.362;6.588;2024-02-14T07:42:04;101443.47;;;11.45;94.77
76766;BME280;65707;52.362;6.588;2024-02-14T07:44:31;101446.66;;;11.40;94.87
76766;BME280;65707;52.362;6.588;2024-02-14T07:46:58;101444.13;;;11.39;95.03
76766;BME280;65707;52.362;6.588;2024-02-14T07:49:25;101448.31;;;11.41;95.08
76766;BME280;65707;52.362;6.588;2024-02-14T07:51:53;101444.63;;;11.42;95.17
76766;BME280;65707;52.362;6.588;2024-02-14T07:54:20;101448.66;;;11.38;94.93
76766;BME280;65707;52.362;6.588;2024-02-14T07:56:46;101453.97;;;11.30;95.73
76766;BME280;65707;52.362;6.588;2024-02-14T07:59:13;101455.38;;;11.42;95.44
76766;BME280;65707;52.362;6.588;2024-02-14T08:01:40;101451.66;;;11.35;95.49
76766;BME280;65707;52.362;6.588;2024-02-14T08:04:08;101457.72;;;11.37;95.42
76766;BME280;65707;52.362;6.588;2024-02-14T08:06:35;101458.38;;;11.39;95.66
76766;BME280;65707;52.362;6.588;2024-02-14T08:09:03;101468.47;;;11.37;95.63
76766;BME280;65707;52.362;6.588;2024-02-14T08:11:31;101462.56;;;11.34;96.03
76766;BME280;65707;52.362;6.588;2024-02-14T08:13:58;101466.88;;;11.27;96.13
76766;BME280;65707;52.362;6.588;2024-02-14T08:16:25;101462.41;;;11.35;96.28
76766;BME280;65707;52.362;6.588;2024-02-14T08:18:52;101465.72;;;11.29;96.38
76766;BME280;65707;52.362;6.588;2024-02-14T08:21:24;101461.06;;;11.39;96.63
76766;BME280;65707;52.362;6.588;2024-02-14T08:23:51;101463.59;;;11.41;96.08
76766;BME280;65707;52.362;6.588;2024-02-14T08:26:19;101470.69;;;11.42;95.85
76766;BME280;65707;52.362;6.588;2024-02-14T08:28:47;101462.56;;;11.34;96.12
76766;BME280;65707;52.362;6.588;2024-02-14T08:31:14;101461.38;;;11.36;96.42
76766;BME280;65707;52.362;6.588;2024-02-14T08:33:41;101471.50;;;11.42;95.97
76766;BME280;65707;52.362;6.588;2024-02-14T08:36:08;101474.41;;;11.49;96.58
76766;BME280;65707;52.362;6.588;2024-02-14T08:38:35;101482.34;;;11.58;95.96
76766;BME280;65707;52.362;6.588;2024-02-14T08:41:02;101475.94;;;11.51;95.67
76766;BME280;65707;52.362;6.588;2024-02-14T08:43:30;101487.28;;;11.63;95.68
76766;BME280;65707;52.362;6.588;2024-02-14T08:45:57;101485.38;;;11.55;95.28
76766;BME280;65707;52.362;6.588;2024-02-14T08:48:24;101480.63;;;11.49;95.78
76766;BME280;65707;52.362;6.588;2024-02-14T08:50:52;101484.72;;;11.61;95.85
76766;BME280;65707;52.362;6.588;2024-02-14T08:53:19;101487.19;;;11.55;96.30
76766;BME280;65707;52.362;6.588;2024-02-14T08:55:46;101492.50;;;11.64;96.03
76766;BME280;65707;52.362;6.588;2024-02-14T08:58:13;101491.19;;;11.68;96.26
76766;BME280;65707;52.362;6.588;2024-02-14T09:00:41;101497.34;;;11.61;96.31
76766;BME280;65707;52.362;6.588;2024-02-14T09:03:07;101494.50;;;11.62;96.29
76766;BME280;65707;52.362;6.588;2024-02-14T09:05:34;101504.78;;;11.67;95.95
76766;BME280;65707;52.362;6.588;2024-02-14T09:08:02;101504.63;;;11.68;96.04
76766;BME280;65707;52.362;6.588;2024-02-14T09:10:29;101505.78;;;11.66;96.35
76766;BME280;65707;52.362;6.588;2024-02-14T09:12:56;101509.31;;;11.66;95.95
76766;BME280;65707;52.362;6.588;2024-02-14T09:15:23;101509.69;;;11.71;96.53
76766;BME280;65707;52.362;6.588;2024-02-14T09:17:51;101512.22;;;11.73;96.16
76766;BME280;65707;52.362;6.588;2024-02-14T09:20:17;101511.69;;;11.69;96.86
76766;BME280;65707;52.362;6.588;2024-02-14T09:22:45;101511.25;;;11.82;96.69
76766;BME280;65707;52.362;6.588;2024-02-14T09:25:12;101511.25;;;11.82;96.40
76766;BME280;65707;52.362;6.588;2024-02-14T09:27:39;101521.31;;;11.80;96.38
76766;BME280;65707;52.362;6.588;2024-02-14T09:30:07;101515.44;;;11.76;96.61
76766;BME280;65707;52.362;6.588;2024-02-14T09:32:34;101516.25;;;11.77;96.21
76766;BME280;65707;52.362;6.588;2024-02-14T09:35:02;101516.63;;;11.82;96.19
76766;BME280;65707;52.362;6.588;2024-02-14T09:37:32;101517.47;;;11.82;95.84
76766;BME280;65707;52.362;6.588;2024-02-14T09:39:58;101520.13;;;11.74;96.70
76766;BME280;65707;52.362;6.588;2024-02-14T09:42:28;101517.16;;;11.85;96.42
76766;BME280;65707;52.362;6.588;2024-02-14T09:45:01;101513.81;;;11.91;96.33
76766;BME280;65707;52.362;6.588;2024-02-14T09:47:30;101519.16;;;11.83;95.91
76766;BME280;65707;52.362;6.588;2024-02-14T09:49:58;101520.00;;;11.84;96.35
76766;BME280;65707;52.362;6.588;2024-02-14T09:52:31;101515.81;;;11.89;95.94
76766;BME280;65707;52.362;6.588;2024-02-14T09:54:59;101511.81;;;11.93;96.05
76766;BME280;65707;52.362;6.588;2024-02-14T09:57:29;101527.81;;;11.95;96.50
76766;BME280;65707;52.362;6.588;2024-02-14T09:59:58;101524.09;;;11.96;96.28
76766;BME280;65707;52.362;6.588;2024-02-14T10:02:26;101536.03;;;11.93;96.55
76766;BME280;65707;52.362;6.588;2024-02-14T10:04:53;101540.03;;;11.89;96.42
76766;BME280;65707;52.362;6.588;2024-02-14T10:07:22;101542.53;;;11.83;97.70
76766;BME280;65707;52.362;6.588;2024-02-14T10:09:50;101540.22;;;11.96;96.60
76766;BME280;65707;52.362;6.588;2024-02-14T10:12:17;101538.25;;;11.98;96.95
76766;BME280;65707;52.362;6.588;2024-02-14T10:14:44;101543.28;;;12.01;96.38
76766;BME280;65707;52.362;6.588;2024-02-14T10:17:17;101547.94;;;11.91;96.72
76766;BME280;65707;52.362;6.588;2024-02-14T10:19:55;101539.09;;;11.98;96.71
76766;BME280;65707;52.362;6.588;2024-02-14T10:22:22;101547.81;;;12.00;97.07
76766;BME280;65707;52.362;6.588;2024-02-14T10:24:51;101555.06;;;12.00;96.27
76766;BME280;65707;52.362;6.588;2024-02-14T10:27:18;101542.09;;;11.95;96.24
76766;BME280;65707;52.362;6.588;2024-02-14T10:29:46;101536.72;;;12.03;95.88
76766;BME280;65707;52.362;6.588;2024-02-14T10:32:14;101537.13;;;12.16;96.01
76766;BME280;65707;52.362;6.588;2024-02-14T10:34:43;101548.63;;;12.26;96.24
76766;BME280;65707;52.362;6.588;2024-02-14T10:37:13;101546.78;;;12.35;95.52
76766;BME280;65707;52.362;6.588;2024-02-14T10:39:42;101550.50;;;12.34;95.25
76766;BME280;65707;52.362;6.588;2024-02-14T10:42:13;101551.22;;;12.44;94.74
76766;BME280;65707;52.362;6.588;2024-02-14T10:44:41;101558.09;;;12.38;94.12
76766;BME280;65707;52.362;6.588;2024-02-14T10:47:10;101561.22;;;12.26;95.68
76766;BME280;65707;52.362;6.588;2024-02-14T10:49:45;101563.78;;;12.35;95.22
76766;BME280;65707;52.362;6.588;2024-02-14T10:52:15;101564.84;;;12.50;94.34
76766;BME280;65707;52.362;6.588;2024-02-14T10:54:47;101563.88;;;12.52;93.75
76766;BME280;65707;52.362;6.588;2024-02-14T10:57:24;101556.28;;;12.47;94.40
76766;BME280;65707;52.362;6.588;2024-02-14T10:59:51;101559.47;;;12.42;94.55
76766;BME280;65707;52.362;6.588;2024-02-14T11:02:20;101564.81;;;12.34;94.85
76766;BME280;65707;52.362;6.588;2024-02-14T11:04:49;101570.81;;;12.28;95.16
76766;BME280;65707;52.362;6.588;2024-02-14T11:07:19;101562.75;;;12.28;95.77
76766;BME280;65707;52.362;6.588;2024-02-14T11:09:48;101563.53;;;12.13;96.09
76766;BME280;65707;52.362;6.588;2024-02-14T11:12:27;101567.63;;;12.25;96.92
76766;BME280;65707;52.362;6.588;2024-02-14T11:15:00;101564.13;;;12.32;95.97
76766;BME280;65707;52.362;6.588;2024-02-14T11:17:26;101552.19;;;12.35;95.87
76766;BME280;65707;52.362;6.588;2024-02-14T11:19:53;101568.84;;;12.38;95.80
76766;BME280;65707;52.362;6.588;2024-02-14T11:22:21;101563.78;;;12.35;95.91
76766;BME280;65707;52.362;6.588;2024-02-14T11:24:48;101564.09;;;12.24;96.17
76766;BME280;65707;52.362;6.588;2024-02-14T11:27:18;101564.78;;;12.26;96.33
76766;BME280;65707;52.362;6.588;2024-02-14T11:29:52;101568.78;;;12.22;95.90
76766;BME280;65707;52.362;6.588;2024-02-14T11:32:21;101561.91;;;12.28;96.11
76766;BME280;65707;52.362;6.588;2024-02-14T11:34:53;101565.72;;;12.17;96.24
76766;BME280;65707;52.362;6.588;2024-02-14T11:37:20;101561.56;;;12.23;96.41
76766;BME280;65707;52.362;6.588;2024-02-14T11:39:53;101556.38;;;12.29;96.26
76766;BME280;65707;52.362;6.588;2024-02-14T11:42:23;101551.97;;;12.28;96.21
76766;BME280;65707;52.362;6.588;2024-02-14T11:44:51;101558.28;;;12.45;95.97
76766;BME280;65707;52.362;6.588;2024-02-14T11:47:19;101546.00;;;12.42;95.82
76766;BME280;65707;52.362;6.588;2024-02-14T11:49:47;101551.19;;;12.36;95.67
76766;BME280;65707;52.362;6.588;2024-02-14T11:52:13;101549.84;;;12.40;95.90
76766;BME280;65707;52.362;6.588;2024-02-14T11:54:46;101554.56;;;12.46;95.81
76766;BME280;65707;52.362;6.588;2024-02-14T11:57:16;101549.16;;;12.38;95.20
76766;BME280;65707;52.362;6.588;2024-02-14T11:59:44;101543.59;;;12.39;96.22
76766;BME280;65707;52.362;6.588;2024-02-14T12:02:14;101545.19;;;12.50;95.75
76766;BME280;65707;52.362;6.588;2024-02-14T12:04:45;101551.56;;;12.49;95.62
76766;BME280;65707;52.362;6.588;2024-02-14T12:07:12;101542.66;;;12.48;95.50
76766;BME280;65707;52.362;6.588;2024-02-14T12:09:39;101543.66;;;12.56;95.45
76766;BME280;65707;52.362;6.588;2024-02-14T12:12:08;101543.34;;;12.59;95.49
76766;BME280;65707;52.362;6.588;2024-02-14T12:14:35;101539.31;;;12.63;94.73
76766;BME280;65707;52.362;6.588;2024-02-14T12:17:02;101547.25;;;12.64;95.00
76766;BME280;65707;52.362;6.588;2024-02-14T12:19:30;101538.16;;;12.65;94.93
76766;BME280;65707;52.362;6.588;2024-02-14T12:21:58;101537.63;;;12.62;95.13
76766;BME280;65707;52.362;6.588;2024-02-14T12:24:27;101540.44;;;12.52;95.86
76766;BME280;65707;52.362;6.588;2024-02-14T12:26:55;101536.25;;;12.49;96.37
76766;BME280;65707;52.362;6.588;2024-02-14T12:29:23;101544.00;;;12.52;95.76
76766;BME280;65707;52.362;6.588;2024-02-14T12:31:50;101549.91;;;12.56;96.41
76766;BME280;65707;52.362;6.588;2024-02-14T12:34:17;101540.81;;;12.57;96.48
76766;BME280;65707;52.362;6.588;2024-02-14T12:36:46;101547.91;;;12.58;96.56
76766;BME280;65707;52.362;6.588;2024-02-14T12:39:13;101542.31;;;12.52;95.80
76766;BME280;65707;52.362;6.588;2024-02-14T12:41:40;101540.13;;;12.47;96.24
76766;BME280;65707;52.362;6.588;2024-02-14T12:44:07;101546.00;;;12.50;96.19
76766;BME280;65707;52.362;6.588;2024-02-14T12:46:34;101532.56;;;12.59;96.94
76766;BME280;65707;52.362;6.588;2024-02-14T12:49:03;101534.25;;;12.52;96.43
76766;BME280;65707;52.362;6.588;2024-02-14T12:51:30;101537.28;;;12.57;96.68
76766;BME280;65707;52.362;6.588;2024-02-14T12:53:58;101542.53;;;12.58;96.63